sensor_id;sensor_type;location;lat;lon;timestamp;P1;durP1;ratioP1;P2;durP2;ratioP2
7773;SDS011;3931;42.260;23.116;2022-12-29T00:01:40;40.73;;;21.57;;
7773;SDS011;3931;42.260;23.116;2022-12-29T00:04:06;33.30;;;19.57;;
7773;SDS011;3931;42.260;23.116;2022-12-29T00:06:32;36.83;;;20.80;;
7773;SDS011;3931;42.260;23.116;2022-12-29T00:08:58;31.37;;;18.80;;
7773;SDS011;3931;42.260;23.116;2022-12-29T00:11:26;43.30;;;20.00;;
7773;SDS011;3931;42.260;23.116;2022-12-29T00:13:52;33.67;;;19.90;;
7773;SDS011;3931;42.260;23.116;2022-12-29T00:16:37;33.93;;;19.80;;
7773;SDS011;3931;42.260;23.116;2022-12-29T00:19:06;35.13;;;19.90;;
7773;SDS011;3931;42.260;23.116;2022-12-29T00:21:52;32.67;;;18.67;;
7773;SDS011;3931;42.260;23.116;2022-12-29T00:24:36;40.30;;;19.70;;
7773;SDS011;3931;42.260;23.116;2022-12-29T00:27:20;36.27;;;20.70;;
7773;SDS011;3931;42.260;23.116;2022-12-29T00:30:07;35.63;;;19.73;;
7773;SDS011;3931;42.260;23.116;2022-12-29T00:32:53;31.60;;;19.47;;
7773;SDS011;3931;42.260;23.116;2022-12-29T00:35:39;34.00;;;19.73;;
7773;SDS011;3931;42.260;23.116;2022-12-29T00:38:10;32.03;;;19.13;;
7773;SDS011;3931;42.260;23.116;2022-12-29T00:40:55;31.83;;;17.97;;
7773;SDS011;3931;42.260;23.116;2022-12-29T00:43:40;34.83;;;19.60;;
7773;SDS011;3931;42.260;23.116;2022-12-29T00:46:24;30.17;;;18.87;;
7773;SDS011;3931;42.260;23.116;2022-12-29T00:48:50;37.10;;;19.47;;
7773;SDS011;3931;42.260;23.116;2022-12-29T00:51:35;30.53;;;18.30;;
7773;SDS011;3931;42.260;23.116;2022-12-29T00:54:01;33.70;;;18.80;;
7773;SDS011;3931;42.260;23.116;2022-12-29T00:56:28;30.50;;;18.00;;
7773;SDS011;3931;42.260;23.116;2022-12-29T00:58:54;39.93;;;21.50;;
7773;SDS011;3931;42.260;23.116;2022-12-29T01:01:20;37.23;;;22.00;;
7773;SDS011;3931;42.260;23.116;2022-12-29T01:03:46;40.43;;;20.80;;
7773;SDS011;3931;42.260;23.116;2022-12-29T01:06:12;33.97;;;18.93;;
7773;SDS011;3931;42.260;23.116;2022-12-29T01:08:39;31.23;;;18.37;;
7773;SDS011;3931;42.260;23.116;2022-12-29T01:11:05;31.60;;;18.40;;
7773;SDS011;3931;42.260;23.116;2022-12-29T01:13:32;31.07;;;18.10;;
7773;SDS011;3931;42.260;23.116;2022-12-29T01:15:58;28.20;;;16.53;;
7773;SDS011;3931;42.260;23.116;2022-12-29T01:18:25;25.93;;;17.13;;
7773;SDS011;3931;42.260;23.116;2022-12-29T01:20:51;27.80;;;17.00;;
7773;SDS011;3931;42.260;23.116;2022-12-29T01:23:23;25.60;;;15.90;;
7773;SDS011;3931;42.260;23.116;2022-12-29T01:25:50;34.43;;;17.90;;
7773;SDS011;3931;42.260;23.116;2022-12-29T01:28:16;29.07;;;17.47;;
7773;SDS011;3931;42.260;23.116;2022-12-29T01:30:42;36.07;;;21.17;;
7773;SDS011;3931;42.260;23.116;2022-12-29T01:33:08;34.20;;;20.47;;
7773;SDS011;3931;42.260;23.116;2022-12-29T01:35:34;35.50;;;20.17;;
7773;SDS011;3931;42.260;23.116;2022-12-29T01:38:00;36.60;;;21.53;;
7773;SDS011;3931;42.260;23.116;2022-12-29T01:40:26;37.93;;;21.77;;
7773;SDS011;3931;42.260;23.116;2022-12-29T01:42:52;39.47;;;22.40;;
7773;SDS011;3931;42.260;23.116;2022-12-29T01:45:19;39.40;;;21.97;;
7773;SDS011;3931;42.260;23.116;2022-12-29T01:47:46;35.03;;;20.03;;
7773;SDS011;3931;42.260;23.116;2022-12-29T01:50:20;31.50;;;18.60;;
7773;SDS011;3931;42.260;23.116;2022-12-29T01:52:53;43.10;;;21.97;;
7773;SDS011;3931;42.260;23.116;2022-12-29T01:55:24;38.37;;;20.70;;
7773;SDS011;3931;42.260;23.116;2022-12-29T01:57:51;37.40;;;19.43;;
7773;SDS011;3931;42.260;23.116;2022-12-29T02:00:20;33.43;;;19.70;;
7773;SDS011;3931;42.260;23.116;2022-12-29T02:02:47;29.83;;;18.10;;
7773;SDS011;3931;42.260;23.116;2022-12-29T02:05:18;32.77;;;19.93;;
7773;SDS011;3931;42.260;23.116;2022-12-29T02:07:50;31.80;;;18.33;;
7773;SDS011;3931;42.260;23.116;2022-12-29T02:10:19;31.30;;;17.70;;
7773;SDS011;3931;42.260;23.116;2022-12-29T02:12:46;26.97;;;18.17;;
7773;SDS011;3931;42.260;23.116;2022-12-29T02:15:14;25.50;;;15.40;;
7773;SDS011;3931;42.260;23.116;2022-12-29T02:17:48;28.03;;;16.50;;
7773;SDS011;3931;42.260;23.116;2022-12-29T02:23:30;23.60;;;15.53;;
7773;SDS011;3931;42.260;23.116;2022-12-29T02:26:16;27.10;;;17.30;;
7773;SDS011;3931;42.260;23.116;2022-12-29T02:29:10;24.67;;;16.20;;
7773;SDS011;3931;42.260;23.116;2022-12-29T02:32:02;22.60;;;15.07;;
7773;SDS011;3931;42.260;23.116;2022-12-29T02:34:32;34.33;;;16.50;;
7773;SDS011;3931;42.260;23.116;2022-12-29T02:37:10;21.17;;;14.73;;
7773;SDS011;3931;42.260;23.116;2022-12-29T02:39:47;28.97;;;16.13;;
7773;SDS011;3931;42.260;23.116;2022-12-29T02:42:23;24.80;;;15.47;;
7773;SDS011;3931;42.260;23.116;2022-12-29T02:44:56;28.87;;;16.80;;
7773;SDS011;3931;42.260;23.116;2022-12-29T02:47:29;25.53;;;16.27;;
7773;SDS011;3931;42.260;23.116;2022-12-29T02:50:03;25.63;;;15.17;;
7773;SDS011;3931;42.260;23.116;2022-12-29T02:52:34;27.07;;;16.40;;
7773;SDS011;3931;42.260;23.116;2022-12-29T02:55:04;27.13;;;15.70;;
7773;SDS011;3931;42.260;23.116;2022-12-29T02:57:32;25.30;;;14.93;;
7773;SDS011;3931;42.260;23.116;2022-12-29T03:00:01;28.47;;;16.63;;
7773;SDS011;3931;42.260;23.116;2022-12-29T03:02:36;25.50;;;16.10;;
7773;SDS011;3931;42.260;23.116;2022-12-29T03:05:17;24.97;;;15.60;;
7773;SDS011;3931;42.260;23.116;2022-12-29T03:07:54;31.70;;;18.13;;
7773;SDS011;3931;42.260;23.116;2022-12-29T03:10:30;24.20;;;15.00;;
7773;SDS011;3931;42.260;23.116;2022-12-29T03:13:01;28.23;;;17.20;;
7773;SDS011;3931;42.260;23.116;2022-12-29T03:15:53;26.70;;;15.30;;
7773;SDS011;3931;42.260;23.116;2022-12-29T03:18:28;25.40;;;15.70;;
7773;SDS011;3931;42.260;23.116;2022-12-29T03:21:16;25.23;;;15.70;;
7773;SDS011;3931;42.260;23.116;2022-12-29T03:24:08;28.77;;;16.50;;
7773;SDS011;3931;42.260;23.116;2022-12-29T03:26:35;34.60;;;17.20;;
7773;SDS011;3931;42.260;23.116;2022-12-29T03:29:02;33.00;;;18.37;;
7773;SDS011;3931;42.260;23.116;2022-12-29T03:31:33;34.50;;;20.80;;
7773;SDS011;3931;42.260;23.116;2022-12-29T03:34:01;32.37;;;17.23;;
7773;SDS011;3931;42.260;23.116;2022-12-29T03:36:30;27.83;;;16.73;;
7773;SDS011;3931;42.260;23.116;2022-12-29T03:39:04;25.10;;;15.93;;
7773;SDS011;3931;42.260;23.116;2022-12-29T03:41:36;25.20;;;15.47;;
7773;SDS011;3931;42.260;23.116;2022-12-29T03:44:05;25.77;;;14.57;;
7773;SDS011;3931;42.260;23.116;2022-12-29T03:46:32;29.60;;;15.40;;
7773;SDS011;3931;42.260;23.116;2022-12-29T03:48:58;27.20;;;15.70;;
7773;SDS011;3931;42.260;23.116;2022-12-29T03:51:25;25.30;;;16.63;;
7773;SDS011;3931;42.260;23.116;2022-12-29T03:53:51;25.70;;;15.53;;
7773;SDS011;3931;42.260;23.116;2022-12-29T03:56:17;24.47;;;14.90;;
7773;SDS011;3931;42.260;23.116;2022-12-29T03:58:43;30.50;;;17.30;;
7773;SDS011;3931;42.260;23.116;2022-12-29T04:01:09;22.50;;;15.10;;
7773;SDS011;3931;42.260;23.116;2022-12-29T04:03:35;29.73;;;15.77;;
7773;SDS011;3931;42.260;23.116;2022-12-29T04:06:01;26.83;;;16.70;;
7773;SDS011;3931;42.260;23.116;2022-12-29T04:08:28;29.07;;;16.23;;
7773;SDS011;3931;42.260;23.116;2022-12-29T04:10:54;31.77;;;17.93;;
7773;SDS011;3931;42.260;23.116;2022-12-29T04:13:20;32.63;;;16.97;;
7773;SDS011;3931;42.260;23.116;2022-12-29T04:15:46;27.73;;;15.83;;
7773;SDS011;3931;42.260;23.116;2022-12-29T04:18:12;31.60;;;17.40;;
7773;SDS011;3931;42.260;23.116;2022-12-29T04:20:38;32.07;;;18.60;;
7773;SDS011;3931;42.260;23.116;2022-12-29T04:23:23;28.90;;;16.77;;
7773;SDS011;3931;42.260;23.116;2022-12-29T04:25:49;27.50;;;16.33;;
7773;SDS011;3931;42.260;23.116;2022-12-29T04:28:15;29.10;;;16.97;;
7773;SDS011;3931;42.260;23.116;2022-12-29T04:30:42;27.40;;;17.33;;
7773;SDS011;3931;42.260;23.116;2022-12-29T04:33:08;30.67;;;16.93;;
7773;SDS011;3931;42.260;23.116;2022-12-29T04:35:34;28.10;;;17.37;;
7773;SDS011;3931;42.260;23.116;2022-12-29T04:38:01;29.80;;;16.67;;
7773;SDS011;3931;42.260;23.116;2022-12-29T04:40:27;29.70;;;17.77;;
7773;SDS011;3931;42.260;23.116;2022-12-29T04:42:54;30.70;;;18.03;;
7773;SDS011;3931;42.260;23.116;2022-12-29T04:45:20;29.37;;;18.17;;
7773;SDS011;3931;42.260;23.116;2022-12-29T04:47:46;28.83;;;17.00;;
7773;SDS011;3931;42.260;23.116;2022-12-29T04:50:12;33.00;;;18.83;;
7773;SDS011;3931;42.260;23.116;2022-12-29T04:52:38;29.97;;;17.30;;
7773;SDS011;3931;42.260;23.116;2022-12-29T04:55:04;29.40;;;18.13;;
7773;SDS011;3931;42.260;23.116;2022-12-29T04:57:31;29.50;;;16.70;;
7773;SDS011;3931;42.260;23.116;2022-12-29T04:59:58;34.93;;;20.93;;
7773;SDS011;3931;42.260;23.116;2022-12-29T05:02:24;28.07;;;17.47;;
7773;SDS011;3931;42.260;23.116;2022-12-29T05:04:50;35.23;;;19.13;;
7773;SDS011;3931;42.260;23.116;2022-12-29T05:07:16;31.40;;;17.53;;
7773;SDS011;3931;42.260;23.116;2022-12-29T05:09:42;39.77;;;20.00;;
7773;SDS011;3931;42.260;23.116;2022-12-29T05:12:08;37.73;;;21.63;;
7773;SDS011;3931;42.260;23.116;2022-12-29T05:14:34;41.53;;;21.40;;
7773;SDS011;3931;42.260;23.116;2022-12-29T05:17:01;37.90;;;21.07;;
7773;SDS011;3931;42.260;23.116;2022-12-29T05:19:27;44.47;;;22.27;;
7773;SDS011;3931;42.260;23.116;2022-12-29T05:21:53;41.03;;;22.37;;
7773;SDS011;3931;42.260;23.116;2022-12-29T05:24:19;47.40;;;23.47;;
7773;SDS011;3931;42.260;23.116;2022-12-29T05:26:46;43.53;;;21.50;;
7773;SDS011;3931;42.260;23.116;2022-12-29T05:29:12;34.77;;;19.53;;
7773;SDS011;3931;42.260;23.116;2022-12-29T05:31:38;35.27;;;20.83;;
7773;SDS011;3931;42.260;23.116;2022-12-29T05:34:04;46.50;;;25.40;;
7773;SDS011;3931;42.260;23.116;2022-12-29T05:36:30;36.10;;;20.80;;
7773;SDS011;3931;42.260;23.116;2022-12-29T05:38:56;32.73;;;19.87;;
7773;SDS011;3931;42.260;23.116;2022-12-29T05:41:22;34.77;;;21.13;;
7773;SDS011;3931;42.260;23.116;2022-12-29T05:43:48;38.47;;;22.80;;
7773;SDS011;3931;42.260;23.116;2022-12-29T05:46:14;36.63;;;23.10;;
7773;SDS011;3931;42.260;23.116;2022-12-29T05:48:40;42.37;;;22.03;;
7773;SDS011;3931;42.260;23.116;2022-12-29T05:51:07;34.93;;;19.63;;
7773;SDS011;3931;42.260;23.116;2022-12-29T05:53:34;31.50;;;18.20;;
7773;SDS011;3931;42.260;23.116;2022-12-29T05:56:00;27.53;;;16.80;;
7773;SDS011;3931;42.260;23.116;2022-12-29T05:58:26;32.73;;;19.43;;
7773;SDS011;3931;42.260;23.116;2022-12-29T06:00:52;33.50;;;19.63;;
7773;SDS011;3931;42.260;23.116;2022-12-29T06:03:18;32.83;;;19.00;;
7773;SDS011;3931;42.260;23.116;2022-12-29T06:05:44;29.40;;;18.20;;
7773;SDS011;3931;42.260;23.116;2022-12-29T06:08:11;34.77;;;18.80;;
7773;SDS011;3931;42.260;23.116;2022-12-29T06:10:37;31.37;;;19.40;;
7773;SDS011;3931;42.260;23.116;2022-12-29T06:13:04;33.10;;;18.07;;
7773;SDS011;3931;42.260;23.116;2022-12-29T06:15:31;25.37;;;16.47;;
7773;SDS011;3931;42.260;23.116;2022-12-29T06:17:57;25.40;;;15.20;;
7773;SDS011;3931;42.260;23.116;2022-12-29T06:20:23;27.13;;;16.87;;
7773;SDS011;3931;42.260;23.116;2022-12-29T06:22:49;36.60;;;19.70;;
7773;SDS011;3931;42.260;23.116;2022-12-29T06:25:15;33.20;;;18.87;;
7773;SDS011;3931;42.260;23.116;2022-12-29T06:27:42;30.90;;;18.33;;
7773;SDS011;3931;42.260;23.116;2022-12-29T06:30:09;32.27;;;18.27;;
7773;SDS011;3931;42.260;23.116;2022-12-29T06:32:36;32.57;;;18.50;;
7773;SDS011;3931;42.260;23.116;2022-12-29T06:35:02;33.17;;;17.77;;
7773;SDS011;3931;42.260;23.116;2022-12-29T06:37:28;26.20;;;15.77;;
7773;SDS011;3931;42.260;23.116;2022-12-29T06:39:54;21.63;;;13.60;;
7773;SDS011;3931;42.260;23.116;2022-12-29T06:42:21;28.30;;;15.00;;
7773;SDS011;3931;42.260;23.116;2022-12-29T06:44:47;32.17;;;16.57;;
7773;SDS011;3931;42.260;23.116;2022-12-29T06:47:13;27.00;;;15.50;;
7773;SDS011;3931;42.260;23.116;2022-12-29T06:49:39;24.60;;;14.93;;
7773;SDS011;3931;42.260;23.116;2022-12-29T06:52:05;28.27;;;17.13;;
7773;SDS011;3931;42.260;23.116;2022-12-29T06:54:31;29.97;;;17.27;;
7773;SDS011;3931;42.260;23.116;2022-12-29T06:56:57;35.17;;;18.43;;
7773;SDS011;3931;42.260;23.116;2022-12-29T06:59:24;31.30;;;18.20;;
7773;SDS011;3931;42.260;23.116;2022-12-29T07:01:51;40.27;;;18.90;;
7773;SDS011;3931;42.260;23.116;2022-12-29T07:04:17;37.10;;;18.93;;
7773;SDS011;3931;42.260;23.116;2022-12-29T07:06:43;34.53;;;18.80;;
7773;SDS011;3931;42.260;23.116;2022-12-29T07:09:09;30.23;;;16.10;;
7773;SDS011;3931;42.260;23.116;2022-12-29T07:11:35;46.13;;;18.40;;
7773;SDS011;3931;42.260;23.116;2022-12-29T07:14:02;30.20;;;16.17;;
7773;SDS011;3931;42.260;23.116;2022-12-29T07:16:29;28.80;;;17.47;;
7773;SDS011;3931;42.260;23.116;2022-12-29T07:18:55;34.50;;;16.90;;
7773;SDS011;3931;42.260;23.116;2022-12-29T07:21:21;28.50;;;17.43;;
7773;SDS011;3931;42.260;23.116;2022-12-29T07:23:47;26.50;;;16.17;;
7773;SDS011;3931;42.260;23.116;2022-12-29T07:26:14;31.37;;;17.17;;
7773;SDS011;3931;42.260;23.116;2022-12-29T07:28:43;36.63;;;17.73;;
7773;SDS011;3931;42.260;23.116;2022-12-29T07:31:12;38.40;;;20.40;;
7773;SDS011;3931;42.260;23.116;2022-12-29T07:33:40;43.80;;;22.73;;
7773;SDS011;3931;42.260;23.116;2022-12-29T07:36:06;45.10;;;24.47;;
7773;SDS011;3931;42.260;23.116;2022-12-29T07:38:33;38.13;;;21.33;;
7773;SDS011;3931;42.260;23.116;2022-12-29T07:40:59;33.53;;;18.03;;
7773;SDS011;3931;42.260;23.116;2022-12-29T07:43:25;29.53;;;18.40;;
7773;SDS011;3931;42.260;23.116;2022-12-29T07:45:51;34.60;;;19.80;;
7773;SDS011;3931;42.260;23.116;2022-12-29T07:48:17;51.50;;;24.47;;
7773;SDS011;3931;42.260;23.116;2022-12-29T07:50:44;38.87;;;21.40;;
7773;SDS011;3931;42.260;23.116;2022-12-29T07:53:10;28.90;;;20.10;;
7773;SDS011;3931;42.260;23.116;2022-12-29T07:55:36;27.63;;;18.83;;
7773;SDS011;3931;42.260;23.116;2022-12-29T07:58:02;33.53;;;20.13;;
7773;SDS011;3931;42.260;23.116;2022-12-29T08:00:28;33.73;;;20.73;;
7773;SDS011;3931;42.260;23.116;2022-12-29T08:02:55;34.33;;;20.13;;
7773;SDS011;3931;42.260;23.116;2022-12-29T08:05:21;36.53;;;21.70;;
7773;SDS011;3931;42.260;23.116;2022-12-29T08:07:48;34.47;;;20.17;;
7773;SDS011;3931;42.260;23.116;2022-12-29T08:10:14;28.60;;;18.17;;
7773;SDS011;3931;42.260;23.116;2022-12-29T08:12:41;28.73;;;18.60;;
7773;SDS011;3931;42.260;23.116;2022-12-29T08:15:09;36.40;;;20.03;;
7773;SDS011;3931;42.260;23.116;2022-12-29T08:17:36;39.30;;;22.87;;
7773;SDS011;3931;42.260;23.116;2022-12-29T08:20:03;25.70;;;17.63;;
7773;SDS011;3931;42.260;23.116;2022-12-29T08:22:30;23.07;;;16.33;;
7773;SDS011;3931;42.260;23.116;2022-12-29T08:24:56;28.20;;;18.50;;
7773;SDS011;3931;42.260;23.116;2022-12-29T08:27:23;28.13;;;19.57;;
7773;SDS011;3931;42.260;23.116;2022-12-29T08:29:49;44.00;;;23.90;;
7773;SDS011;3931;42.260;23.116;2022-12-29T08:32:15;61.93;;;34.33;;
7773;SDS011;3931;42.260;23.116;2022-12-29T08:34:41;35.90;;;21.37;;
7773;SDS011;3931;42.260;23.116;2022-12-29T08:37:07;82.73;;;39.13;;
7773;SDS011;3931;42.260;23.116;2022-12-29T08:39:33;64.13;;;39.93;;
7773;SDS011;3931;42.260;23.116;2022-12-29T08:42:02;61.37;;;38.40;;
7773;SDS011;3931;42.260;23.116;2022-12-29T08:44:28;51.50;;;32.80;;
7773;SDS011;3931;42.260;23.116;2022-12-29T08:46:54;59.83;;;30.63;;
7773;SDS011;3931;42.260;23.116;2022-12-29T08:49:20;63.33;;;33.87;;
7773;SDS011;3931;42.260;23.116;2022-12-29T08:51:46;91.03;;;49.60;;
7773;SDS011;3931;42.260;23.116;2022-12-29T08:54:12;109.93;;;52.90;;
7773;SDS011;3931;42.260;23.116;2022-12-29T08:56:39;97.40;;;47.90;;
7773;SDS011;3931;42.260;23.116;2022-12-29T08:59:05;69.70;;;36.73;;
7773;SDS011;3931;42.260;23.116;2022-12-29T09:01:31;75.93;;;35.17;;
7773;SDS011;3931;42.260;23.116;2022-12-29T09:03:58;45.83;;;20.67;;
7773;SDS011;3931;42.260;23.116;2022-12-29T09:06:24;33.83;;;15.27;;
7773;SDS011;3931;42.260;23.116;2022-12-29T09:08:50;32.80;;;18.33;;
7773;SDS011;3931;42.260;23.116;2022-12-29T09:11:19;49.90;;;24.30;;
7773;SDS011;3931;42.260;23.116;2022-12-29T09:13:47;37.03;;;16.80;;
7773;SDS011;3931;42.260;23.116;2022-12-29T09:16:14;42.53;;;18.90;;
7773;SDS011;3931;42.260;23.116;2022-12-29T09:18:41;21.70;;;13.53;;
7773;SDS011;3931;42.260;23.116;2022-12-29T09:21:07;21.30;;;14.17;;
7773;SDS011;3931;42.260;23.116;2022-12-29T09:23:35;19.63;;;12.80;;
7773;SDS011;3931;42.260;23.116;2022-12-29T09:26:01;27.00;;;16.30;;
7773;SDS011;3931;42.260;23.116;2022-12-29T09:28:28;29.07;;;17.13;;
7773;SDS011;3931;42.260;23.116;2022-12-29T09:30:55;27.53;;;16.20;;
7773;SDS011;3931;42.260;23.116;2022-12-29T09:33:23;33.50;;;18.00;;
7773;SDS011;3931;42.260;23.116;2022-12-29T09:35:50;39.67;;;15.80;;
7773;SDS011;3931;42.260;23.116;2022-12-29T09:38:17;32.60;;;16.87;;
7773;SDS011;3931;42.260;23.116;2022-12-29T09:40:44;40.80;;;17.67;;
7773;SDS011;3931;42.260;23.116;2022-12-29T09:43:22;18.67;;;13.53;;
7773;SDS011;3931;42.260;23.116;2022-12-29T09:46:09;28.17;;;16.10;;
7773;SDS011;3931;42.260;23.116;2022-12-29T09:48:47;25.87;;;14.80;;
7773;SDS011;3931;42.260;23.116;2022-12-29T09:51:18;23.43;;;14.40;;
7773;SDS011;3931;42.260;23.116;2022-12-29T09:53:49;25.73;;;14.73;;
7773;SDS011;3931;42.260;23.116;2022-12-29T09:56:21;21.00;;;13.67;;
7773;SDS011;3931;42.260;23.116;2022-12-29T09:58:50;26.73;;;16.97;;
7773;SDS011;3931;42.260;23.116;2022-12-29T10:01:22;24.10;;;14.47;;
7773;SDS011;3931;42.260;23.116;2022-12-29T10:03:55;28.20;;;15.30;;
7773;SDS011;3931;42.260;23.116;2022-12-29T10:06:24;19.03;;;13.43;;
7773;SDS011;3931;42.260;23.116;2022-12-29T10:08:54;16.87;;;10.77;;
7773;SDS011;3931;42.260;23.116;2022-12-29T10:11:29;16.13;;;12.60;;
7773;SDS011;3931;42.260;23.116;2022-12-29T10:14:08;15.37;;;10.90;;
7773;SDS011;3931;42.260;23.116;2022-12-29T10:16:48;15.80;;;10.60;;
7773;SDS011;3931;42.260;23.116;2022-12-29T10:19:35;17.70;;;10.73;;
7773;SDS011;3931;42.260;23.116;2022-12-29T10:22:17;24.17;;;11.10;;
7773;SDS011;3931;42.260;23.116;2022-12-29T10:24:56;22.23;;;11.23;;
7773;SDS011;3931;42.260;23.116;2022-12-29T10:27:22;20.57;;;9.50;;
7773;SDS011;3931;42.260;23.116;2022-12-29T10:29:50;21.83;;;13.20;;
7773;SDS011;3931;42.260;23.116;2022-12-29T10:32:26;15.80;;;11.50;;
7773;SDS011;3931;42.260;23.116;2022-12-29T10:34:57;34.27;;;13.20;;
7773;SDS011;3931;42.260;23.116;2022-12-29T10:37:30;18.90;;;11.90;;
7773;SDS011;3931;42.260;23.116;2022-12-29T10:40:12;24.13;;;14.10;;
7773;SDS011;3931;42.260;23.116;2022-12-29T10:42:45;31.30;;;13.57;;
7773;SDS011;3931;42.260;23.116;2022-12-29T10:45:16;17.50;;;10.80;;
7773;SDS011;3931;42.260;23.116;2022-12-29T10:47:47;25.03;;;12.37;;
7773;SDS011;3931;42.260;23.116;2022-12-29T10:50:19;24.80;;;12.67;;
7773;SDS011;3931;42.260;23.116;2022-12-29T10:52:46;26.97;;;14.40;;
7773;SDS011;3931;42.260;23.116;2022-12-29T10:55:14;18.63;;;12.67;;
7773;SDS011;3931;42.260;23.116;2022-12-29T10:57:44;15.20;;;11.57;;
7773;SDS011;3931;42.260;23.116;2022-12-29T11:00:11;21.10;;;12.67;;
7773;SDS011;3931;42.260;23.116;2022-12-29T11:02:46;24.47;;;11.80;;
7773;SDS011;3931;42.260;23.116;2022-12-29T11:05:35;18.07;;;11.73;;
7773;SDS011;3931;42.260;23.116;2022-12-29T11:08:08;23.70;;;12.60;;
7773;SDS011;3931;42.260;23.116;2022-12-29T11:10:37;22.27;;;14.30;;
7773;SDS011;3931;42.260;23.116;2022-12-29T11:13:10;18.20;;;12.50;;
7773;SDS011;3931;42.260;23.116;2022-12-29T11:15:39;30.93;;;15.60;;
7773;SDS011;3931;42.260;23.116;2022-12-29T11:18:07;17.57;;;12.93;;
7773;SDS011;3931;42.260;23.116;2022-12-29T11:20:44;19.23;;;14.07;;
7773;SDS011;3931;42.260;23.116;2022-12-29T11:23:21;25.37;;;15.10;;
7773;SDS011;3931;42.260;23.116;2022-12-29T11:29:03;21.33;;;13.50;;
7773;SDS011;3931;42.260;23.116;2022-12-29T11:31:39;21.17;;;13.30;;
7773;SDS011;3931;42.260;23.116;2022-12-29T11:34:06;30.60;;;15.93;;
7773;SDS011;3931;42.260;23.116;2022-12-29T11:36:33;24.93;;;14.63;;
7773;SDS011;3931;42.260;23.116;2022-12-29T11:39:01;22.00;;;14.63;;
7773;SDS011;3931;42.260;23.116;2022-12-29T11:41:29;31.33;;;17.37;;
7773;SDS011;3931;42.260;23.116;2022-12-29T11:43:57;24.10;;;14.63;;
7773;SDS011;3931;42.260;23.116;2022-12-29T11:46:25;32.37;;;17.43;;
7773;SDS011;3931;42.260;23.116;2022-12-29T11:48:55;37.03;;;18.60;;
7773;SDS011;3931;42.260;23.116;2022-12-29T11:51:25;27.20;;;17.43;;
7773;SDS011;3931;42.260;23.116;2022-12-29T11:53:55;33.67;;;17.53;;
7773;SDS011;3931;42.260;23.116;2022-12-29T11:56:32;36.50;;;18.70;;
7773;SDS011;3931;42.260;23.116;2022-12-29T12:05:04;28.17;;;18.53;;
7773;SDS011;3931;42.260;23.116;2022-12-29T12:07:39;20.10;;;14.50;;
7773;SDS011;3931;42.260;23.116;2022-12-29T12:10:12;34.63;;;17.37;;
7773;SDS011;3931;42.260;23.116;2022-12-29T12:12:44;30.97;;;17.50;;
7773;SDS011;3931;42.260;23.116;2022-12-29T12:15:16;26.67;;;16.07;;
7773;SDS011;3931;42.260;23.116;2022-12-29T12:17:49;29.37;;;15.70;;
7773;SDS011;3931;42.260;23.116;2022-12-29T12:20:20;24.57;;;15.07;;
7773;SDS011;3931;42.260;23.116;2022-12-29T12:22:53;28.70;;;16.67;;
7773;SDS011;3931;42.260;23.116;2022-12-29T12:25:29;26.53;;;15.13;;
7773;SDS011;3931;42.260;23.116;2022-12-29T12:27:59;29.70;;;15.70;;
7773;SDS011;3931;42.260;23.116;2022-12-29T12:30:33;24.73;;;14.20;;
7773;SDS011;3931;42.260;23.116;2022-12-29T12:33:04;22.47;;;12.53;;
7773;SDS011;3931;42.260;23.116;2022-12-29T12:35:41;24.00;;;14.93;;
7773;SDS011;3931;42.260;23.116;2022-12-29T12:38:16;30.63;;;15.10;;
7773;SDS011;3931;42.260;23.116;2022-12-29T12:40:57;20.07;;;12.23;;
7773;SDS011;3931;42.260;23.116;2022-12-29T12:43:35;37.33;;;16.53;;
7773;SDS011;3931;42.260;23.116;2022-12-29T12:46:10;55.80;;;16.60;;
7773;SDS011;3931;42.260;23.116;2022-12-29T12:49:04;22.50;;;13.37;;
7773;SDS011;3931;42.260;23.116;2022-12-29T12:51:44;23.93;;;14.20;;
7773;SDS011;3931;42.260;23.116;2022-12-29T12:54:22;29.57;;;15.50;;
7773;SDS011;3931;42.260;23.116;2022-12-29T12:57:03;26.73;;;13.20;;
7773;SDS011;3931;42.260;23.116;2022-12-29T12:59:42;24.13;;;14.23;;
7773;SDS011;3931;42.260;23.116;2022-12-29T13:02:21;22.60;;;13.10;;
7773;SDS011;3931;42.260;23.116;2022-12-29T13:05:03;21.53;;;12.50;;
7773;SDS011;3931;42.260;23.116;2022-12-29T13:07:41;23.07;;;12.70;;
7773;SDS011;3931;42.260;23.116;2022-12-29T13:10:18;21.90;;;11.57;;
7773;SDS011;3931;42.260;23.116;2022-12-29T13:13:02;23.20;;;13.10;;
7773;SDS011;3931;42.260;23.116;2022-12-29T13:15:41;18.63;;;11.97;;
7773;SDS011;3931;42.260;23.116;2022-12-29T13:18:18;28.13;;;17.10;;
7773;SDS011;3931;42.260;23.116;2022-12-29T13:20:53;24.40;;;14.17;;
7773;SDS011;3931;42.260;23.116;2022-12-29T13:23:24;27.00;;;15.30;;
7773;SDS011;3931;42.260;23.116;2022-12-29T13:25:58;22.60;;;14.30;;
7773;SDS011;3931;42.260;23.116;2022-12-29T13:28:34;18.27;;;12.00;;
7773;SDS011;3931;42.260;23.116;2022-12-29T13:31:20;17.73;;;12.23;;
7773;SDS011;3931;42.260;23.116;2022-12-29T13:33:55;22.73;;;12.67;;
7773;SDS011;3931;42.260;23.116;2022-12-29T13:36:27;26.13;;;12.97;;
7773;SDS011;3931;42.260;23.116;2022-12-29T13:39:01;21.83;;;13.33;;
7773;SDS011;3931;42.260;23.116;2022-12-29T13:41:32;19.40;;;12.10;;
7773;SDS011;3931;42.260;23.116;2022-12-29T13:44:02;19.17;;;11.60;;
7773;SDS011;3931;42.260;23.116;2022-12-29T13:46:31;14.70;;;10.00;;
7773;SDS011;3931;42.260;23.116;2022-12-29T13:49:02;22.47;;;11.17;;
7773;SDS011;3931;42.260;23.116;2022-12-29T13:51:32;20.90;;;12.60;;
7773;SDS011;3931;42.260;23.116;2022-12-29T13:54:02;25.37;;;14.60;;
7773;SDS011;3931;42.260;23.116;2022-12-29T13:56:39;29.53;;;14.47;;
7773;SDS011;3931;42.260;23.116;2022-12-29T13:59:11;21.93;;;11.50;;
7773;SDS011;3931;42.260;23.116;2022-12-29T14:01:46;22.60;;;13.03;;
7773;SDS011;3931;42.260;23.116;2022-12-29T14:04:21;40.77;;;19.50;;
7773;SDS011;3931;42.260;23.116;2022-12-29T14:06:57;39.40;;;18.57;;
7773;SDS011;3931;42.260;23.116;2022-12-29T14:09:31;38.07;;;14.13;;
7773;SDS011;3931;42.260;23.116;2022-12-29T14:12:18;27.30;;;14.50;;
7773;SDS011;3931;42.260;23.116;2022-12-29T14:14:48;27.20;;;15.53;;
7773;SDS011;3931;42.260;23.116;2022-12-29T14:17:16;24.33;;;15.23;;
7773;SDS011;3931;42.260;23.116;2022-12-29T14:19:45;24.53;;;12.17;;
7773;SDS011;3931;42.260;23.116;2022-12-29T14:22:12;28.00;;;16.00;;
7773;SDS011;3931;42.260;23.116;2022-12-29T14:24:39;33.13;;;16.53;;
7773;SDS011;3931;42.260;23.116;2022-12-29T14:30:46;27.50;;;15.27;;
7773;SDS011;3931;42.260;23.116;2022-12-29T14:33:16;26.93;;;15.30;;
7773;SDS011;3931;42.260;23.116;2022-12-29T14:35:44;28.47;;;14.30;;
7773;SDS011;3931;42.260;23.116;2022-12-29T14:38:15;25.57;;;14.33;;
7773;SDS011;3931;42.260;23.116;2022-12-29T14:40:43;31.53;;;15.53;;
7773;SDS011;3931;42.260;23.116;2022-12-29T14:43:13;33.67;;;15.10;;
7773;SDS011;3931;42.260;23.116;2022-12-29T14:45:51;24.53;;;14.50;;
7773;SDS011;3931;42.260;23.116;2022-12-29T14:48:28;23.17;;;13.93;;
7773;SDS011;3931;42.260;23.116;2022-12-29T14:51:00;30.17;;;17.30;;
7773;SDS011;3931;42.260;23.116;2022-12-29T14:53:43;31.87;;;18.10;;
7773;SDS011;3931;42.260;23.116;2022-12-29T14:56:11;30.60;;;16.20;;
7773;SDS011;3931;42.260;23.116;2022-12-29T14:58:42;29.03;;;16.33;;
7773;SDS011;3931;42.260;23.116;2022-12-29T15:01:18;36.17;;;16.23;;
7773;SDS011;3931;42.260;23.116;2022-12-29T15:03:48;35.57;;;18.73;;
7773;SDS011;3931;42.260;23.116;2022-12-29T15:06:16;42.13;;;18.20;;
7773;SDS011;3931;42.260;23.116;2022-12-29T15:08:48;32.50;;;19.20;;